Time;durP1;ratioP1;P1;durP2;ratioP2;P2;SDS_P1;SDS_P2;PMS_P1;PMS_P2;Temp;Humidity;BMP_temperature;BMP_pressure;BME280_temperature;BME280_humidity;BME280_pressure;Samples;Min_cycle;Max_cycle;Signal;HPM_P1;HPM_P2
2022/12/20 00:00:59;;;;;;;34.70;29.10;;;;;;;3.71;84.21;100689.09;10311177;28;20090;-58
2022/12/20 00:06:01;;;;;;;42.90;28.77;;;;;;;3.66;84.21;100677.91;10341828;28;20600;-58
2022/12/20 00:11:05;;;;;;;41.75;30.30;;;;;;;3.62;84.49;100663.16;10337693;28;20054;-57
2022/12/20 00:16:13;;;;;;;38.70;29.80;;;;;;;3.57;84.55;100649.38;10293719;28;20045;-57
2022/12/20 00:21:15;;;;;;;38.25;28.38;;;;;;;3.54;84.63;100640.69;10350024;28;20708;-59
2022/12/20 00:26:19;;;;;;;38.42;30.30;;;;;;;3.56;84.78;100648.53;10334042;28;20538;-58
2022/12/20 00:31:22;;;;;;;35.17;26.55;;;;;;;3.57;84.43;100633.56;10339170;28;20041;-58
2022/12/20 00:36:29;;;;;;;36.33;26.30;;;;;;;3.58;84.33;100632.66;10352514;28;20064;-57
2022/12/20 00:41:32;;;;;;;30.50;24.27;;;;;;;3.54;84.18;100635.44;10340257;28;20208;-57
2022/12/20 00:46:34;;;;;;;32.47;26.33;;;;;;;3.59;84.28;100627.31;10338764;28;20124;-58
2022/12/20 00:51:36;;;;;;;35.63;27.50;;;;;;;3.61;84.36;100632.50;10349653;28;20046;-57
2022/12/20 00:56:38;;;;;;;37.20;26.05;;;;;;;3.61;84.35;100621.97;10332554;28;20430;-58
2022/12/20 01:01:39;;;;;;;30.17;22.83;;;;;;;3.69;83.85;100614.56;10346055;28;20659;-57
2022/12/20 01:06:42;;;;;;;31.75;24.33;;;;;;;3.73;83.31;100621.41;10333560;28;20050;-58
2022/12/20 01:11:43;;;;;;;28.92;23.20;;;;;;;3.80;82.71;100614.94;10346149;28;20261;-57
2022/12/20 01:16:46;;;;;;;31.45;24.83;;;;;;;3.78;82.22;100626.47;10329382;28;20051;-67
2022/12/20 01:21:48;;;;;;;29.77;24.92;;;;;;;3.77;82.93;100622.13;10344745;28;20045;-56
2022/12/20 01:26:49;;;;;;;28.75;24.15;;;;;;;3.81;83.54;100621.06;10329167;28;20322;-57
2022/12/20 01:31:52;;;;;;;29.55;24.13;;;;;;;3.83;82.97;100630.59;10338776;28;20386;-56
2022/12/20 01:36:54;;;;;;;28.55;24.05;;;;;;;3.79;83.15;100621.13;10346349;28;20041;-57
2022/12/20 01:41:56;;;;;;;27.95;23.52;;;;;;;3.84;83.15;100629.69;10341407;28;22620;-57
2022/12/20 01:46:57;;;;;;;30.50;24.63;;;;;;;3.92;82.74;100631.09;10307130;28;20057;-57
2022/12/20 01:52:05;;;;;;;31.15;24.25;;;;;;;3.86;83.05;100619.09;10340552;28;20697;-57
2022/12/20 01:57:11;;;;;;;28.73;23.27;;;;;;;3.83;82.90;100606.91;10341870;28;20045;-56
2022/12/20 02:02:16;;;;;;;28.77;23.00;;;;;;;3.85;82.98;100598.94;10303674;28;20156;-56
2022/12/20 02:07:25;;;;;;;29.38;23.55;;;;;;;3.92;82.98;100594.22;10330248;28;20050;-57
2022/12/20 02:12:45;;;;;;;28.50;23.20;;;;;;;3.97;82.98;100587.81;10338452;28;20045;-56
2022/12/20 02:18:15;;;;;;;30.50;24.23;;;;;;;3.89;82.73;100572.38;10337892;28;20482;-57
2022/12/20 02:23:51;;;;;;;28.70;23.00;;;;;;;3.95;82.54;100562.47;10341246;28;20045;-56
2022/12/20 02:29:06;;;;;;;29.27;24.48;;;;;;;3.91;82.59;100558.28;10338797;28;20047;-57
2022/12/20 02:34:09;;;;;;;30.83;24.13;;;;;;;3.88;83.00;100560.13;10339861;28;20096;-57
2022/12/20 02:39:14;;;;;;;29.45;23.13;;;;;;;3.85;82.86;100551.53;10338617;28;20665;-57
2022/12/20 02:49:41;;;;;;;28.45;22.85;;;;;;;3.69;83.20;100527.69;10347805;28;20038;-57
2022/12/20 02:54:43;;;;;;;27.77;21.75;;;;;;;3.83;83.77;100524.41;10345864;28;20060;-57
2022/12/20 03:00:03;;;;;;;29.73;24.45;;;;;;;3.88;83.16;100536.41;10345650;28;20465;-57
2022/12/20 03:05:04;;;;;;;28.48;22.30;;;;;;;3.91;83.12;100534.59;10347077;28;20529;-56
2022/12/20 03:10:07;;;;;;;32.08;23.58;;;;;;;3.87;83.10;100532.09;10348974;28;20058;-56
2022/12/20 03:15:08;;;;;;;26.17;22.95;;;;;;;3.85;83.64;100527.81;10333285;28;20050;-57
2022/12/20 03:20:10;;;;;;;26.85;23.15;;;;;;;3.88;83.40;100522.41;10347726;28;20046;-57
2022/12/20 03:25:12;;;;;;;28.10;23.83;;;;;;;3.94;83.85;100529.16;10340228;28;20057;-63
2022/12/20 03:30:14;;;;;;;32.40;24.15;;;;;;;3.96;83.56;100528.13;10355952;28;20053;-57
2022/12/20 03:35:15;;;;;;;28.10;22.70;;;;;;;3.96;83.66;100532.56;10346539;28;20185;-57
2022/12/20 03:40:17;;;;;;;31.05;24.45;;;;;;;3.97;83.29;100526.38;10347980;28;20073;-60
2022/12/20 03:45:18;;;;;;;28.73;22.83;;;;;;;4.00;83.69;100523.59;10352551;28;21636;-57
2022/12/20 03:50:20;;;;;;;30.33;23.85;;;;;;;3.98;83.57;100509.63;10348983;28;20053;-57
2022/12/20 03:55:21;;;;;;;26.75;22.13;;;;;;;4.07;83.46;100503.94;10348642;28;20521;-57
2022/12/20 04:00:23;;;;;;;29.25;23.45;;;;;;;4.09;83.31;100491.53;10348632;28;20052;-57
2022/12/20 04:05:25;;;;;;;26.42;22.52;;;;;;;4.05;83.74;100496.09;10337298;28;20657;-60
2022/12/20 04:10:26;;;;;;;26.60;23.23;;;;;;;4.09;83.72;100494.16;10350247;28;20808;-57
2022/12/20 04:15:28;;;;;;;27.33;21.25;;;;;;;4.17;83.02;100509.56;10351413;28;20724;-57
2022/12/20 04:20:29;;;;;;;28.90;22.75;;;;;;;4.13;83.42;100498.34;10331956;28;20049;-57
2022/12/20 04:25:31;;;;;;;26.05;21.55;;;;;;;4.15;83.70;100496.47;10345093;28;20060;-57
2022/12/20 04:30:32;;;;;;;26.65;22.50;;;;;;;4.12;84.07;100511.59;10332667;28;21009;-57
2022/12/20 04:35:35;;;;;;;25.40;21.15;;;;;;;4.13;84.08;100490.44;10329995;28;20057;-57
2022/12/20 04:40:37;;;;;;;27.27;21.77;;;;;;;4.12;84.23;100469.44;10336546;28;20112;-56
2022/12/20 04:45:38;;;;;;;27.33;22.42;;;;;;;4.15;84.19;100467.50;10348494;28;20057;-56
2022/12/20 04:50:39;;;;;;;24.45;21.30;;;;;;;4.14;84.37;100457.03;10348272;28;20049;-56
2022/12/20 04:55:41;;;;;;;27.33;22.20;;;;;;;4.17;84.35;100452.44;10341943;28;20630;-58
2022/12/20 05:00:42;;;;;;;25.48;21.77;;;;;;;4.16;84.15;100460.44;10346820;28;20319;-57
2022/12/20 05:05:44;;;;;;;25.95;20.90;;;;;;;4.29;83.67;100487.03;10343771;28;20220;-57
2022/12/20 05:10:46;;;;;;;27.02;22.30;;;;;;;4.31;83.72;100482.53;10350542;28;20045;-57
2022/12/20 05:15:53;;;;;;;28.40;22.98;;;;;;;4.29;83.90;100479.97;10332047;28;20609;-59
2022/12/20 05:26:19;;;;;;;29.10;22.60;;;;;;;4.32;84.12;100479.81;10329912;28;20053;-58
2022/12/20 05:31:21;;;;;;;26.65;22.48;;;;;;;4.32;83.60;100461.38;10345436;28;20061;-57
2022/12/20 05:36:23;;;;;;;23.38;20.80;;;;;;;4.34;83.55;100456.00;10327082;28;20038;-64
2022/12/20 05:41:24;;;;;;;27.75;20.95;;;;;;;4.39;83.60;100462.75;10329686;28;20062;-57
2022/12/20 05:46:26;;;;;;;25.17;21.35;;;;;;;4.46;83.74;100452.78;10327655;28;20532;-58
2022/12/20 05:51:27;;;;;;;26.65;21.02;;;;;;;4.42;83.44;100445.94;10327429;28;20061;-58
2022/12/20 05:56:28;;;;;;;26.67;23.52;;;;;;;4.42;84.07;100444.16;10339314;28;20057;-57
2022/12/20 06:01:30;;;;;;;25.60;20.83;;;;;;;4.47;84.17;100441.28;10344200;28;21705;-57
2022/12/20 06:06:31;;;;;;;25.75;21.42;;;;;;;4.45;84.21;100439.66;10343441;28;20069;-58
2022/12/20 06:11:33;;;;;;;23.92;21.33;;;;;;;4.45;83.89;100439.66;10325296;28;20129;-57
2022/12/20 06:16:35;;;;;;;25.00;21.83;;;;;;;4.43;83.83;100437.13;10340913;28;20388;-58
2022/12/20 06:21:37;;;;;;;24.92;21.33;;;;;;;4.33;83.92;100435.88;10343122;28;20049;-58
2022/12/20 06:26:38;;;;;;;27.65;22.85;;;;;;;4.28;84.00;100422.94;10344142;28;20264;-57
2022/12/20 06:31:40;;;;;;;26.85;23.45;;;;;;;4.24;84.43;100422.22;10344814;28;20045;-58
2022/12/20 06:36:42;;;;;;;24.25;21.00;;;;;;;4.24;84.25;100421.38;10339563;28;20076;-57
2022/12/20 06:41:43;;;;;;;26.67;20.35;;;;;;;4.23;84.53;100441.63;10342296;28;20177;-57
2022/12/20 06:46:45;;;;;;;24.70;20.80;;;;;;;4.25;84.24;100438.91;10328928;28;20060;-57
2022/12/20 06:51:47;;;;;;;27.17;20.90;;;;;;;4.34;84.45;100450.75;10341792;28;20060;-57
2022/12/20 06:56:49;;;;;;;27.80;21.90;;;;;;;4.44;84.24;100451.97;10330873;28;20066;-58
2022/12/20 07:01:50;;;;;;;23.80;20.83;;;;;;;4.45;84.44;100445.78;10342734;28;20056;-57
2022/12/20 07:06:52;;;;;;;24.67;20.60;;;;;;;4.53;84.53;100443.59;10343862;28;20258;-57
2022/12/20 07:11:55;;;;;;;27.23;22.08;;;;;;;4.55;84.57;100428.56;10343841;28;20057;-57
2022/12/20 07:16:58;;;;;;;27.03;19.83;;;;;;;4.54;84.73;100418.94;10338295;28;20132;-56
2022/12/20 07:22:00;;;;;;;25.90;19.17;;;;;;;4.65;84.51;100428.91;10344402;28;20092;-58
2022/12/20 07:27:01;;;;;;;24.77;20.10;;;;;;;4.69;84.29;100419.06;10346481;28;20073;-59
2022/12/20 07:32:03;;;;;;;25.00;20.48;;;;;;;4.73;84.32;100420.63;10317037;28;20093;-56
2022/12/20 07:37:05;;;;;;;24.55;20.40;;;;;;;4.71;84.23;100414.56;10338465;28;20052;-56
2022/12/20 07:42:08;;;;;;;20.55;18.35;;;;;;;4.83;84.00;100398.06;10334096;28;20077;-56
2022/12/20 07:47:10;;;;;;;25.60;20.00;;;;;;;4.86;83.86;100394.41;10311941;28;20052;-57
2022/12/20 07:52:13;;;;;;;23.75;18.30;;;;;;;4.84;83.55;100385.75;10319026;28;20060;-55
2022/12/20 07:57:21;;;;;;;26.63;20.10;;;;;;;4.85;83.53;100395.34;10331406;28;20069;-56
2022/12/20 08:02:30;;;;;;;23.92;20.88;;;;;;;4.88;83.61;100401.31;10294274;28;20611;-54
2022/12/20 08:07:32;;;;;;;22.88;20.38;;;;;;;4.90;83.33;100396.78;10302070;28;20073;-61
2022/12/20 08:12:33;;;;;;;25.40;21.48;;;;;;;4.92;83.52;100392.31;10327925;28;20046;-56
2022/12/20 08:17:36;;;;;;;25.55;20.50;;;;;;;4.93;83.54;100383.44;10329763;28;20706;-56
2022/12/20 08:22:38;;;;;;;24.75;19.30;;;;;;;5.02;83.55;100375.97;10348859;28;20111;-56
2022/12/20 08:27:39;;;;;;;23.57;19.93;;;;;;;5.16;83.16;100373.41;10282338;28;1112215;-56
2022/12/20 08:32:42;;;;;;;26.70;19.98;;;;;;;5.31;82.27;100369.91;10311313;28;20057;-55
2022/12/20 08:37:44;;;;;;;23.40;19.30;;;;;;;5.49;81.44;100377.69;10337268;28;20057;-57
2022/12/20 08:42:46;;;;;;;22.48;19.23;;;;;;;5.54;81.11;100361.59;10322956;28;20057;-56
2022/12/20 08:47:47;;;;;;;24.25;19.77;;;;;;;5.42;81.75;100374.56;10316459;28;20149;-56
2022/12/20 08:52:49;;;;;;;24.70;18.77;;;;;;;5.43;82.28;100375.41;10339706;28;20046;-55
2022/12/20 08:57:51;;;;;;;23.98;20.13;;;;;;;5.40;82.13;100381.72;10338989;28;20053;-56
2022/12/20 09:02:53;;;;;;;23.13;19.83;;;;;;;5.44;82.50;100392.97;10324350;28;20057;-54
2022/12/20 09:07:55;;;;;;;23.70;18.60;;;;;;;5.47;82.51;100382.22;10313050;28;20052;-58
2022/12/20 09:12:57;;;;;;;24.48;18.98;;;;;;;5.55;82.58;100374.69;10334724;28;20049;-56
2022/12/20 09:17:59;;;;;;;23.98;18.75;;;;;;;5.63;82.22;100372.50;10302420;28;20721;-58
2022/12/20 09:23:00;;;;;;;26.65;20.67;;;;;;;5.69;81.98;100373.94;10328226;28;20080;-56
2022/12/20 09:28:04;;;;;;;21.75;18.48;;;;;;;5.75;81.77;100368.28;10341313;28;20143;-55
2022/12/20 09:33:07;;;;;;;19.93;17.90;;;;;;;5.78;82.47;100354.91;10271061;28;20042;-56
2022/12/20 09:38:11;;;;;;;25.05;19.80;;;;;;;5.85;82.31;100352.72;10325143;28;20288;-55
2022/12/20 09:43:17;;;;;;;24.65;20.05;;;;;;;5.88;81.87;100343.78;10344599;28;20502;-55
2022/12/20 09:48:37;;;;;;;20.25;18.08;;;;;;;5.97;82.01;100344.09;10320679;28;20053;-57
2022/12/20 09:54:03;;;;;;;21.67;19.35;;;;;;;6.01;81.65;100337.69;10326783;28;20112;-55
2022/12/20 09:59:10;;;;;;;23.23;18.48;;;;;;;5.99;81.60;100334.31;10340202;28;20053;-58
2022/12/20 10:04:21;;;;;;;21.33;18.67;;;;;;;6.04;80.57;100328.75;10326085;28;20209;-56
2022/12/20 10:09:46;;;;;;;24.33;20.30;;;;;;;6.08;81.24;100329.41;10339993;28;20057;-54
2022/12/20 10:15:14;;;;;;;25.15;20.00;;;;;;;6.07;80.69;100311.84;10351530;28;20057;-56
2022/12/20 10:20:40;;;;;;;26.27;23.20;;;;;;;6.02;80.68;100317.41;10345162;28;20127;-56
2022/12/20 10:25:43;;;;;;;28.25;23.13;;;;;;;6.03;80.64;100315.63;10344179;28;20056;-54
2022/12/20 10:30:45;;;;;;;26.17;21.08;;;;;;;6.09;81.01;100302.03;10324450;28;20618;-53
2022/12/20 10:35:49;;;;;;;24.25;20.63;;;;;;;6.12;81.08;100304.47;10285665;28;20069;-53
2022/12/20 10:40:53;;;;;;;25.48;20.88;;;;;;;6.17;81.25;100290.06;10331963;28;20052;-54
2022/12/20 10:46:19;;;;;;;23.90;20.37;;;;;;;6.16;81.47;100271.66;10328431;28;20091;-54
2022/12/20 10:51:21;;;;;;;25.48;19.88;;;;;;;6.16;81.71;100274.28;10340220;28;20349;-55
2022/12/20 10:56:23;;;;;;;22.20;19.95;;;;;;;6.21;81.30;100281.94;10325111;28;20441;-54
2022/12/20 11:01:34;;;;;;;22.52;20.10;;;;;;;6.25;81.00;100265.78;10334591;28;20116;-55
2022/12/20 11:06:36;;;;;;;23.13;19.80;;;;;;;6.36;80.63;100263.34;10352217;28;20049;-54
2022/12/20 11:11:38;;;;;;;24.95;20.90;;;;;;;6.46;80.52;100246.88;10327404;28;20100;-54
2022/12/20 11:16:51;;;;;;;25.75;19.73;;;;;;;6.49;79.72;100244.03;10358429;28;20111;-58
2022/12/20 11:22:10;;;;;;;26.33;20.30;;;;;;;6.49;79.88;100249.31;10309233;28;20132;-55
2022/12/20 11:27:24;;;;;;;23.35;19.42;;;;;;;6.47;79.71;100230.91;10332325;28;20058;-54
2022/12/20 11:32:37;;;;;;;24.98;19.77;;;;;;;6.60;79.99;100232.78;10346702;28;20053;-54
2022/12/20 11:38:05;;;;;;;21.48;17.42;;;;;;;6.68;79.56;100220.75;10337693;28;20686;-55
2022/12/20 11:43:28;;;;;;;22.73;17.25;;;;;;;6.75;78.91;100228.28;10331323;28;20111;-54
2022/12/20 11:48:41;;;;;;;23.92;19.85;;;;;;;6.79;78.92;100208.63;10325275;28;20586;-54
2022/12/20 11:53:56;;;;;;;20.58;17.42;;;;;;;6.81;78.89;100201.44;10332871;28;20056;-54
2022/12/20 11:59:16;;;;;;;22.80;18.87;;;;;;;6.72;79.28;100174.63;10348537;28;20037;-54
2022/12/20 12:04:25;;;;;;;25.00;20.50;;;;;;;6.70;79.47;100197.69;10353010;28;20149;-54
2022/12/20 12:09:35;;;;;;;23.10;20.55;;;;;;;6.66;79.56;100192.69;10327352;28;20659;-57
2022/12/20 12:15:00;;;;;;;25.52;20.85;;;;;;;6.64;79.83;100168.97;10335130;28;20409;-54
2022/12/20 12:20:28;;;;;;;23.30;20.77;;;;;;;6.69;79.95;100185.38;10338733;28;20055;-56
2022/12/20 12:25:31;;;;;;;27.00;20.40;;;;;;;6.78;79.88;100175.16;10351847;28;21677;-54
2022/12/20 12:30:42;;;;;;;23.02;20.67;;;;;;;6.95;79.12;100172.28;10307214;28;20118;-55
2022/12/20 12:36:19;;;;;;;24.98;20.60;;;;;;;7.00;79.30;100180.72;10308591;28;20128;-56
2022/12/20 12:42:16;;;;;;;23.33;20.85;;;;;;;7.01;79.29;100171.84;10328120;28;20048;-55
2022/12/20 12:47:24;;;;;;;26.13;20.38;;;;;;;7.01;79.51;100157.75;10307384;28;20693;-54
2022/12/20 12:52:41;;;;;;;23.63;19.92;;;;;;;7.12;79.34;100151.75;10333141;28;20113;-54
2022/12/20 12:57:57;;;;;;;22.63;20.20;;;;;;;7.12;79.15;100162.34;10319810;28;20136;-54
2022/12/20 13:03:04;;;;;;;21.90;19.48;;;;;;;7.07;78.99;100144.97;10324349;28;20307;-57
2022/12/20 13:08:16;;;;;;;21.88;18.95;;;;;;;7.11;79.08;100118.28;10305931;28;20129;-53
2022/12/20 13:13:22;;;;;;;23.35;19.85;;;;;;;7.16;78.60;100116.16;10332686;28;20154;-54
2022/12/20 13:18:24;;;;;;;25.48;20.05;;;;;;;7.43;77.45;100119.56;10319998;28;20049;-53
2022/12/20 13:23:25;;;;;;;22.98;20.48;;;;;;;7.43;77.37;100114.28;10330811;28;20083;-54
2022/12/20 13:28:27;;;;;;;22.13;19.20;;;;;;;7.42;77.24;100114.38;10338568;28;20053;-54
2022/12/20 13:33:37;;;;;;;24.83;19.88;;;;;;;7.31;77.70;100106.31;10329536;28;20079;-54
2022/12/20 13:38:53;;;;;;;25.48;21.17;;;;;;;7.28;77.81;100109.19;10324821;28;20050;-53
2022/12/20 13:43:56;;;;;;;25.23;21.17;;;;;;;7.37;77.44;100109.41;10309966;28;20610;-54
2022/12/20 13:49:02;;;;;;;21.30;18.80;;;;;;;7.44;76.90;100131.00;10337110;28;20050;-54
2022/12/20 13:54:07;;;;;;;23.15;19.23;;;;;;;7.58;76.99;100138.84;10328160;28;20627;-54
2022/12/20 13:59:18;;;;;;;;;;;;;;;7.50;76.92;100125.28;10340250;28;20056;-53
2022/12/20 14:04:19;;;;;;;23.85;19.45;;;;;;;7.43;76.99;100119.56;10322439;28;20953;-54
2022/12/20 14:09:28;;;;;;;25.48;20.55;;;;;;;7.43;77.14;100126.66;10325062;28;20045;-54
2022/12/20 14:14:30;;;;;;;23.02;19.13;;;;;;;7.48;77.19;100113.13;10330417;28;20045;-53
2022/12/20 14:19:31;;;;;;;21.58;19.27;;;;;;;7.48;77.47;100098.06;10334755;28;20061;-54
2022/12/20 14:24:34;;;;;;;22.45;18.83;;;;;;;7.49;77.39;100101.53;10320881;28;20159;-54
2022/12/20 14:29:35;;;;;;;20.08;17.98;;;;;;;7.43;77.86;100077.19;10336526;28;20494;-54
2022/12/20 14:34:41;;;;;;;19.17;17.20;;;;;;;7.38;77.86;100079.31;10335281;28;20053;-53
2022/12/20 14:40:08;;;;;;;20.70;18.48;;;;;;;7.29;77.80;100079.13;10333799;28;20060;-54
2022/12/20 14:45:12;;;;;;;20.42;18.05;;;;;;;7.31;78.33;100077.19;10325393;28;20053;-60
2022/12/20 14:50:21;;;;;;;18.75;14.88;;;;;;;7.34;78.00;100072.56;10340663;28;20065;-54
2022/12/20 14:55:32;;;;;;;20.35;17.38;;;;;;;7.31;78.19;100066.59;10341381;28;20060;-54
2022/12/20 15:00:33;;;;;;;21.38;18.08;;;;;;;7.26;78.44;100062.47;10339518;28;20045;-54
2022/12/20 15:05:47;;;;;;;18.65;16.75;;;;;;;7.21;79.05;100063.75;10336751;28;20107;-54
2022/12/20 15:10:52;;;;;;;25.00;19.40;;;;;;;7.22;79.06;100063.66;10337580;28;20049;-54
2022/12/20 15:15:54;;;;;;;20.25;18.15;;;;;;;7.21;78.95;100055.81;10340794;28;20054;-55
2022/12/20 15:21:05;;;;;;;20.85;18.25;;;;;;;7.18;78.97;100040.16;10326419;28;20045;-56
2022/12/20 15:26:11;;;;;;;19.20;16.55;;;;;;;7.09;79.15;100057.53;10336642;28;20052;-55
2022/12/20 15:31:15;;;;;;;20.20;17.10;;;;;;;7.04;79.32;100044.59;10336698;28;20562;-54
2022/12/20 15:36:23;;;;;;;18.40;15.98;;;;;;;7.06;80.06;100052.44;10337596;28;21399;-54
2022/12/20 15:41:27;;;;;;;19.60;17.02;;;;;;;7.04;79.80;100047.25;10337399;28;22201;-54
2022/12/20 15:46:29;;;;;;;19.08;17.08;;;;;;;7.05;80.85;100030.41;10344592;28;20569;-55
2022/12/20 15:51:35;;;;;;;22.27;19.92;;;;;;;6.93;80.94;100047.13;10346101;28;20052;-55
2022/12/20 15:56:37;;;;;;;26.75;19.30;;;;;;;6.84;82.05;100047.75;10342736;28;20057;-54
2022/12/20 16:01:41;;;;;;;23.98;18.33;;;;;;;6.77;82.38;100033.25;10346509;28;20421;-55
2022/12/20 16:06:45;;;;;;;23.88;18.45;;;;;;;6.85;82.36;100039.72;10347384;28;20074;-53
2022/12/20 16:11:47;;;;;;;21.25;18.75;;;;;;;6.84;82.71;100029.25;10354273;28;20053;-61
2022/12/20 16:16:49;;;;;;;19.98;17.65;;;;;;;6.86;82.64;100029.97;10357043;28;20049;-53
2022/12/20 16:21:51;;;;;;;20.85;18.17;;;;;;;6.86;82.68;100022.03;10342053;28;20060;-54
2022/12/20 16:26:53;;;;;;;23.90;21.40;;;;;;;6.85;82.53;100036.22;10342161;28;20978;-54
2022/12/20 16:31:54;;;;;;;29.02;21.60;;;;;;;6.84;82.88;100045.13;10336498;28;20041;-54
2022/12/20 16:36:56;;;;;;;24.67;19.98;;;;;;;6.84;83.01;100037.19;10341922;28;20155;-58
2022/12/20 16:41:57;;;;;;;25.40;22.67;;;;;;;6.84;82.85;100037.19;10323958;28;20206;-53
2022/12/20 16:46:59;;;;;;;25.60;23.02;;;;;;;6.77;82.96;100039.41;10348190;28;20053;-54
2022/12/20 16:52:01;;;;;;;24.15;21.70;;;;;;;6.85;83.48;100044.16;10343163;28;20133;-54
2022/12/20 16:57:02;;;;;;;23.55;21.17;;;;;;;6.85;83.71;100039.72;10318041;28;20144;-54
2022/12/20 17:02:21;;;;;;;23.75;20.95;;;;;;;6.85;83.92;100030.94;10338551;28;20510;-54
2022/12/20 17:07:22;;;;;;;23.48;20.42;;;;;;;6.84;83.27;100034.53;10329751;28;20048;-54
2022/12/20 17:12:24;;;;;;;22.77;19.40;;;;;;;6.81;83.05;100032.09;10347125;28;20045;-54
2022/12/20 17:17:25;;;;;;;21.00;18.90;;;;;;;6.94;83.27;100027.66;10314060;28;20072;-55
2022/12/20 17:22:27;;;;;;;22.35;19.30;;;;;;;6.93;82.59;100030.41;10340085;28;20540;-55
2022/12/20 17:27:29;;;;;;;22.50;19.70;;;;;;;6.91;82.25;100027.88;10345381;28;20049;-56
2022/12/20 17:32:31;;;;;;;20.38;18.20;;;;;;;6.87;82.64;100031.69;10339023;28;20056;-57
2022/12/20 17:37:34;;;;;;;22.15;19.73;;;;;;;6.91;81.95;100017.28;10342875;28;20108;-56
2022/12/20 17:42:35;;;;;;;24.52;18.60;;;;;;;6.87;82.07;100018.44;10342793;28;20057;-58
2022/12/20 17:47:37;;;;;;;22.17;18.63;;;;;;;6.92;82.69;100000.47;10323492;28;20049;-57
2022/12/20 17:52:38;;;;;;;20.02;17.92;;;;;;;6.89;82.79;99987.41;10340453;28;20050;-57
2022/12/20 17:57:39;;;;;;;20.88;17.60;;;;;;;6.86;82.93;99977.06;10336725;28;20096;-57
2022/12/20 18:02:41;;;;;;;23.77;19.38;;;;;;;6.85;83.21;99975.38;10334282;28;20140;-56
2022/12/20 18:07:48;;;;;;;18.45;16.55;;;;;;;6.90;82.96;100005.00;10338368;28;20465;-56
2022/12/20 18:12:50;;;;;;;21.02;17.52;;;;;;;6.93;82.78;99991.56;10342024;28;20053;-56
2022/12/20 18:17:51;;;;;;;20.08;17.90;;;;;;;6.84;82.85;99989.56;10335516;28;20046;-56
2022/12/20 18:22:53;;;;;;;21.00;17.20;;;;;;;6.83;83.69;99996.66;10342837;28;20885;-56
2022/12/20 18:27:55;;;;;;;25.90;18.65;;;;;;;6.84;83.16;100003.63;10338758;28;20520;-53
2022/12/20 18:32:56;;;;;;;22.73;19.63;;;;;;;6.79;83.41;99989.88;10348122;28;20046;-53
2022/12/20 18:37:58;;;;;;;21.88;19.58;;;;;;;6.81;83.96;99984.47;10336752;28;20123;-54
2022/12/20 18:42:59;;;;;;;21.42;19.17;;;;;;;6.81;84.82;99984.47;10313324;28;20160;-54
2022/12/20 18:48:06;;;;;;;23.90;20.08;;;;;;;6.83;84.13;99993.13;10341124;28;20679;-54
2022/12/20 18:53:08;;;;;;;23.02;19.50;;;;;;;6.81;84.62;99969.44;10332751;28;20083;-54
2022/12/20 18:58:09;;;;;;;23.02;20.17;;;;;;;6.79;85.44;99968.72;10336411;28;20065;-54
2022/12/20 19:03:14;;;;;;;22.05;19.55;;;;;;;6.76;85.27;99960.97;10298461;28;20056;-56
2022/12/20 19:08:17;;;;;;;24.10;20.50;;;;;;;6.67;85.72;99964.28;10311393;28;20057;-55
2022/12/20 19:13:19;;;;;;;22.60;20.02;;;;;;;6.60;85.67;99950.59;10321461;28;20125;-54
2022/12/20 19:18:20;;;;;;;25.33;20.90;;;;;;;6.62;85.94;99955.78;10345742;28;20057;-54
2022/12/20 19:23:22;;;;;;;23.00;20.50;;;;;;;6.65;86.04;99964.38;10339796;28;20061;-54
2022/12/20 19:28:23;;;;;;;26.02;22.65;;;;;;;6.66;85.90;99959.94;10356898;28;20144;-54
2022/12/20 19:33:25;;;;;;;24.88;21.85;;;;;;;6.64;85.82;99957.38;10351747;28;20057;-54
2022/12/20 19:38:26;;;;;;;22.52;20.23;;;;;;;6.65;86.11;99967.03;10329455;28;20060;-53
2022/12/20 19:43:28;;;;;;;24.15;20.92;;;;;;;6.64;85.89;99959.19;10339831;28;20049;-54
2022/12/20 19:48:33;;;;;;;23.00;20.10;;;;;;;6.61;85.66;99962.88;10340846;28;20056;-54
2022/12/20 19:53:36;;;;;;;20.02;18.02;;;;;;;6.64;85.75;99957.38;10344395;28;20038;-55
2022/12/20 19:58:38;;;;;;;21.55;18.13;;;;;;;6.66;85.06;99958.13;10330683;28;20057;-54
2022/12/20 20:03:39;;;;;;;19.55;17.55;;;;;;;6.66;85.16;99970.50;10327743;28;20131;-54
2022/12/20 20:08:41;;;;;;;19.83;17.73;;;;;;;6.62;85.32;99975.16;10321473;28;20120;-53
2022/12/20 20:13:43;;;;;;;21.58;18.42;;;;;;;6.62;85.56;99967.22;10351329;28;20076;-54
2022/12/20 20:18:45;;;;;;;22.33;19.42;;;;;;;6.65;85.36;99974.09;10333578;28;20048;-54
2022/12/20 20:23:50;;;;;;;19.60;17.63;;;;;;;6.65;86.07;99980.25;10341422;28;20057;-54
2022/12/20 20:28:52;;;;;;;23.60;18.63;;;;;;;6.61;85.69;99978.75;10339659;28;20061;-55
2022/12/20 20:33:55;;;;;;;20.85;17.75;;;;;;;6.57;85.65;99979.91;10325513;28;20057;-55
2022/12/20 20:38:58;;;;;;;21.30;19.10;;;;;;;6.53;85.80;99975.78;10325737;28;20728;-53
2022/12/20 20:43:59;;;;;;;21.13;18.50;;;;;;;6.51;86.63;99972.41;10312414;28;20037;-54
2022/12/20 20:49:01;;;;;;;22.77;20.38;;;;;;;6.50;86.44;99976.84;10342340;28;20529;-54
2022/12/20 20:54:03;;;;;;;21.38;19.05;;;;;;;6.48;86.62;99970.81;10337236;28;20058;-53
2022/12/20 20:59:05;;;;;;;22.77;20.15;;;;;;;6.49;87.16;99974.31;10340974;28;20626;-53
2022/12/20 21:04:15;;;;;;;24.33;21.10;;;;;;;6.47;87.24;99968.25;10326771;28;20064;-54
2022/12/20 21:09:16;;;;;;;24.73;21.85;;;;;;;6.46;87.51;99958.66;10323563;28;20188;-53
2022/12/20 21:14:18;;;;;;;23.05;20.52;;;;;;;6.44;87.76;99957.91;10332323;28;20135;-54
2022/12/20 21:19:40;;;;;;;23.23;20.65;;;;;;;6.41;87.96;99955.47;10343621;28;20080;-54
2022/12/20 21:24:41;;;;;;;23.27;20.77;;;;;;;6.40;88.23;99951.16;10341760;28;20545;-54
2022/12/20 21:29:43;;;;;;;24.23;21.67;;;;;;;6.33;88.40;99951.53;10341464;28;20096;-53
2022/12/20 21:34:44;;;;;;;25.58;22.20;;;;;;;6.29;89.04;99947.44;10327193;28;20674;-54
2022/12/20 21:39:46;;;;;;;24.75;21.95;;;;;;;6.23;88.70;99937.28;10319715;28;20061;-53
2022/12/20 21:44:48;;;;;;;26.52;22.45;;;;;;;6.26;88.84;99942.34;10329793;28;20055;-56
2022/12/20 21:49:50;;;;;;;21.77;19.60;;;;;;;6.26;88.77;99928.25;10342762;28;20053;-53
2022/12/20 21:54:51;;;;;;;23.63;21.17;;;;;;;6.28;89.46;99929.88;10317377;28;20146;-55
2022/12/20 21:59:52;;;;;;;22.83;20.35;;;;;;;6.27;89.41;99930.81;10335984;28;20084;-59
2022/12/20 22:04:54;;;;;;;25.25;22.65;;;;;;;6.21;89.87;99918.00;10337823;28;20060;-55
2022/12/20 22:09:55;;;;;;;24.42;21.33;;;;;;;6.23;89.89;99917.91;10326318;28;20104;-54
2022/12/20 22:14:57;;;;;;;22.75;20.42;;;;;;;6.19;89.95;99915.47;10346788;28;20113;-60
2022/12/20 22:19:58;;;;;;;26.80;22.10;;;;;;;6.19;89.95;99914.63;10338744;28;20702;-55
2022/12/20 22:24:59;;;;;;;24.05;21.55;;;;;;;6.19;90.14;99904.06;10350087;28;20049;-54
2022/12/20 22:30:01;;;;;;;24.40;21.75;;;;;;;6.12;90.07;99895.69;10352916;28;20060;-54
2022/12/20 22:35:03;;;;;;;24.65;22.13;;;;;;;6.18;90.31;99907.63;10344235;28;20052;-54
2022/12/20 22:40:05;;;;;;;25.17;22.48;;;;;;;6.18;90.71;99902.34;10326272;28;20129;-54
2022/12/20 22:45:07;;;;;;;23.83;21.17;;;;;;;6.22;90.75;99903.00;10338783;28;20463;-55
2022/12/20 22:50:09;;;;;;;23.60;21.20;;;;;;;6.23;91.06;99900.25;10338781;28;20099;-54
2022/12/20 22:55:11;;;;;;;24.13;21.58;;;;;;;6.25;90.95;99895.72;10352814;28;20058;-55
2022/12/20 23:00:13;;;;;;;22.00;19.70;;;;;;;6.26;91.18;99884.19;10340895;28;20510;-55
2022/12/20 23:05:14;;;;;;;24.70;20.25;;;;;;;6.30;91.57;99882.16;10347647;28;20549;-56
2022/12/20 23:15:40;;;;;;;22.42;19.52;;;;;;;6.50;91.18;99889.59;10347658;28;20080;-54
2022/12/20 23:26:14;;;;;;;22.20;19.60;;;;;;;6.48;91.16;99882.69;10350593;28;20490;-54
2022/12/20 23:31:16;;;;;;;20.58;18.48;;;;;;;6.53;91.69;99886.72;10343832;28;20091;-54